Terminal Aerodrome Forecast
Issued by NWS

Home | Current Version | Previous Version | Graphics & Text | Print | Product List | Glossary Off
Versions: 1 2 3 4 5 6 7 8 9 10 11 12 13 14 15 16 17 18 19 20 21 22 23 24 25

000
FTUS43 KABR 170300 AAB
TAFATY
TAF AMD
KATY 170326Z 1703/1724 02019KT P6SM OVC020
     FM170400 02006KT P6SM SKC
      TEMPO 1710/1714 2SM BR
     FM171600 09006KT P6SM SKC=

USA.gov is the U.S. government's official web portal to all federal, state and local government web resources and services.